Time;durP1;ratioP1;P1;durP2;ratioP2;P2;SDS_P1;SDS_P2;PMS_P1;PMS_P2;Temp;Humidity;BMP_temperature;BMP_pressure;BME280_temperature;BME280_humidity;BME280_pressure;Samples;Min_cycle;Max_cycle;Signal;HPM_P1;HPM_P2
2021/07/06 00:00:19;;;;;;;3.40;1.65;;;;;;;;;;5002490;28;20073;-59
2021/07/06 00:02:49;;;;;;;5.50;1.83;;;;;;;;;;5017419;28;20050;-60
2021/07/06 00:05:18;;;;;;;3.15;2.10;;;;;;;;;;5014426;28;20489;-60
2021/07/06 00:07:47;;;;;;;4.50;1.73;;;;;;;;;;5016076;28;20427;-60
2021/07/06 00:10:16;;;;;;;3.97;2.15;;;;;;;;;;5011868;28;20510;-60
2021/07/06 00:12:45;;;;;;;5.97;1.80;;;;;;;;;;5011577;28;20132;-60
2021/07/06 00:15:15;;;;;;;3.75;1.83;;;;;;;;;;5015920;28;20054;-60
2021/07/06 00:17:44;;;;;;;2.92;1.50;;;;;;;;;;5014177;28;20430;-60
2021/07/06 00:20:14;;;;;;;2.45;1.60;;;;;;;;;;5014357;28;20045;-59
2021/07/06 00:22:42;;;;;;;2.17;1.73;;;;;;;;;;5012072;28;20081;-60
2021/07/06 00:25:12;;;;;;;2.72;1.80;;;;;;;;;;5018216;28;20045;-60
2021/07/06 00:27:40;;;;;;;2.38;1.40;;;;;;;;;;5011047;28;20061;-60
2021/07/06 00:30:10;;;;;;;2.55;1.50;;;;;;;;;;5014710;28;20045;-60
2021/07/06 00:32:39;;;;;;;5.10;1.52;;;;;;;;;;5010864;28;20486;-60
2021/07/06 00:35:08;;;;;;;2.70;1.60;;;;;;;;;;5005607;28;20054;-60
2021/07/06 00:37:37;;;;;;;6.78;2.15;;;;;;;;;;5010953;28;20077;-60
2021/07/06 00:40:06;;;;;;;3.78;1.90;;;;;;;;;;5013118;28;20064;-60
2021/07/06 00:42:35;;;;;;;6.28;1.77;;;;;;;;;;5007488;28;20234;-60
2021/07/06 00:45:03;;;;;;;4.88;2.05;;;;;;;;;;5002206;28;20579;-60
2021/07/06 00:47:33;;;;;;;2.35;1.90;;;;;;;;;;5012761;28;20077;-60
2021/07/06 00:50:04;;;;;;;6.93;1.77;;;;;;;;;;5010615;28;20107;-60
2021/07/06 00:52:32;;;;;;;2.72;1.50;;;;;;;;;;5005678;28;20048;-60
2021/07/06 00:55:01;;;;;;;2.17;1.80;;;;;;;;;;5012591;28;20132;-60
2021/07/06 00:57:32;;;;;;;2.65;1.52;;;;;;;;;;5011088;28;20056;-60
2021/07/06 01:00:01;;;;;;;2.45;1.50;;;;;;;;;;5011862;28;20149;-60
2021/07/06 01:02:29;;;;;;;2.78;1.60;;;;;;;;;;5010900;28;20053;-60
2021/07/06 01:04:58;;;;;;;1.63;1.50;;;;;;;;;;5011872;28;20049;-60
2021/07/06 01:07:27;;;;;;;3.13;1.35;;;;;;;;;;5016759;28;20077;-60
2021/07/06 01:09:56;;;;;;;5.40;1.40;;;;;;;;;;5011629;28;20501;-59
2021/07/06 01:12:24;;;;;;;3.80;1.48;;;;;;;;;;5013826;28;20117;-60
2021/07/06 01:14:52;;;;;;;4.30;1.63;;;;;;;;;;5008690;28;20133;-59
2021/07/06 01:17:27;;;;;;;2.65;1.60;;;;;;;;;;5020115;28;20041;-59
2021/07/06 01:19:57;;;;;;;4.30;1.58;;;;;;;;;;5017965;28;20085;-60
2021/07/06 01:22:27;;;;;;;2.45;1.70;;;;;;;;;;5011917;28;20632;-60
2021/07/06 01:24:56;;;;;;;4.80;1.70;;;;;;;;;;5013279;28;20067;-60
2021/07/06 01:27:25;;;;;;;2.08;1.30;;;;;;;;;;5010404;28;20445;-60
2021/07/06 01:29:53;;;;;;;3.63;1.70;;;;;;;;;;5018475;28;20473;-60
2021/07/06 01:32:22;;;;;;;2.50;1.70;;;;;;;;;;5016297;28;20053;-60
2021/07/06 01:34:50;;;;;;;3.30;1.60;;;;;;;;;;5011576;28;20406;-60
2021/07/06 01:37:20;;;;;;;2.72;1.30;;;;;;;;;;5026775;28;20148;-60
2021/07/06 01:39:50;;;;;;;3.03;1.40;;;;;;;;;;5015334;28;20096;-60
2021/07/06 01:42:19;;;;;;;2.08;1.70;;;;;;;;;;5016806;28;20068;-60
2021/07/06 01:44:47;;;;;;;2.17;1.75;;;;;;;;;;5015941;28;20447;-60
2021/07/06 01:47:15;;;;;;;5.80;1.80;;;;;;;;;;5027660;28;20057;-60
2021/07/06 01:49:44;;;;;;;3.30;1.55;;;;;;;;;;5008973;28;20049;-60
2021/07/06 01:52:12;;;;;;;4.28;1.63;;;;;;;;;;5013332;28;20136;-60
2021/07/06 01:54:41;;;;;;;2.35;1.50;;;;;;;;;;4997503;28;20053;-60
2021/07/06 01:57:14;;;;;;;1.83;1.38;;;;;;;;;;5012220;28;20581;-60
2021/07/06 01:59:42;;;;;;;3.40;1.63;;;;;;;;;;5011839;28;20053;-60
2021/07/06 02:02:11;;;;;;;2.25;1.70;;;;;;;;;;5008899;28;20141;-60
2021/07/06 02:04:39;;;;;;;4.95;1.60;;;;;;;;;;5009551;28;20557;-60
2021/07/06 02:07:07;;;;;;;2.42;1.58;;;;;;;;;;5007659;28;20453;-60
2021/07/06 02:09:36;;;;;;;1.85;1.60;;;;;;;;;;5016276;28;20041;-60
2021/07/06 02:12:04;;;;;;;2.08;1.35;;;;;;;;;;5010171;28;20046;-60
2021/07/06 02:14:34;;;;;;;2.30;1.50;;;;;;;;;;5012618;28;20462;-60
2021/07/06 02:17:02;;;;;;;2.83;1.60;;;;;;;;;;5000276;28;20511;-60
2021/07/06 02:19:31;;;;;;;3.42;1.50;;;;;;;;;;5022153;28;20041;-60
2021/07/06 02:21:59;;;;;;;1.90;1.23;;;;;;;;;;5009922;28;20409;-60
2021/07/06 02:24:28;;;;;;;2.38;1.20;;;;;;;;;;5016809;28;20128;-60
2021/07/06 02:26:58;;;;;;;3.20;1.42;;;;;;;;;;5031949;28;20053;-60
2021/07/06 02:29:26;;;;;;;1.65;1.42;;;;;;;;;;5010412;28;20133;-60
2021/07/06 02:31:56;;;;;;;3.92;1.42;;;;;;;;;;5014024;28;20409;-60
2021/07/06 02:34:24;;;;;;;2.17;1.38;;;;;;;;;;5012975;28;20471;-60
2021/07/06 02:36:53;;;;;;;2.00;1.50;;;;;;;;;;5032912;28;20544;-60
2021/07/06 02:39:21;;;;;;;5.22;1.60;;;;;;;;;;5016842;28;20053;-60
2021/07/06 02:41:49;;;;;;;3.42;1.92;;;;;;;;;;5013881;28;20140;-60
2021/07/06 02:44:18;;;;;;;1.70;1.48;;;;;;;;;;5014118;28;20133;-60
2021/07/06 02:46:46;;;;;;;3.20;1.42;;;;;;;;;;5014502;28;20057;-60
2021/07/06 02:49:16;;;;;;;3.20;1.60;;;;;;;;;;5009789;28;20069;-60
2021/07/06 02:51:44;;;;;;;1.92;1.70;;;;;;;;;;5023686;28;20128;-60
2021/07/06 02:54:12;;;;;;;2.08;1.55;;;;;;;;;;5012045;28;20132;-61
2021/07/06 02:56:41;;;;;;;2.65;1.55;;;;;;;;;;5015106;28;20088;-60
2021/07/06 02:59:09;;;;;;;1.92;1.50;;;;;;;;;;5021005;28;20053;-60
2021/07/06 03:01:38;;;;;;;3.25;1.70;;;;;;;;;;5012076;28;20034;-60
2021/07/06 03:04:06;;;;;;;3.78;1.50;;;;;;;;;;5006282;28;20136;-59
2021/07/06 03:06:36;;;;;;;2.15;1.48;;;;;;;;;;5012750;28;20067;-60
2021/07/06 03:09:05;;;;;;;3.38;1.67;;;;;;;;;;5013330;28;20046;-60
2021/07/06 03:11:33;;;;;;;4.25;1.80;;;;;;;;;;5013595;28;20525;-60
2021/07/06 03:14:01;;;;;;;3.88;1.70;;;;;;;;;;5016403;28;20072;-60
2021/07/06 03:16:29;;;;;;;4.55;1.70;;;;;;;;;;5012093;28;20121;-60
2021/07/06 03:18:58;;;;;;;2.83;1.60;;;;;;;;;;5011909;28;20486;-60
2021/07/06 03:21:28;;;;;;;3.45;1.70;;;;;;;;;;4997591;28;20080;-60
2021/07/06 03:23:58;;;;;;;2.58;1.80;;;;;;;;;;5005341;28;20136;-60
2021/07/06 03:26:27;;;;;;;3.08;1.75;;;;;;;;;;5006962;28;20140;-60
2021/07/06 03:28:55;;;;;;;2.30;1.50;;;;;;;;;;5003119;28;20073;-60
2021/07/06 03:31:25;;;;;;;3.17;1.58;;;;;;;;;;5015348;28;20049;-60
2021/07/06 03:33:53;;;;;;;5.30;1.67;;;;;;;;;;5020669;28;20050;-60
2021/07/06 03:36:21;;;;;;;2.10;1.77;;;;;;;;;;5019727;28;20051;-60
2021/07/06 03:38:50;;;;;;;2.53;1.70;;;;;;;;;;5020493;28;20046;-60
2021/07/06 03:41:19;;;;;;;6.43;1.42;;;;;;;;;;5012734;28;20053;-60
2021/07/06 03:43:47;;;;;;;6.00;1.35;;;;;;;;;;5016666;28;20492;-60
2021/07/06 03:46:16;;;;;;;2.03;1.50;;;;;;;;;;5013627;28;20060;-60
2021/07/06 03:48:44;;;;;;;3.13;1.48;;;;;;;;;;5013686;28;20119;-60
2021/07/06 03:51:13;;;;;;;2.92;2.03;;;;;;;;;;5012590;28;20105;-60
2021/07/06 03:53:41;;;;;;;4.13;1.40;;;;;;;;;;5018546;28;20073;-60
2021/07/06 03:56:09;;;;;;;4.05;1.77;;;;;;;;;;5016141;28;20450;-60
2021/07/06 03:58:39;;;;;;;2.20;1.63;;;;;;;;;;5015299;28;20110;-60
2021/07/06 04:01:07;;;;;;;2.28;1.60;;;;;;;;;;5001756;28;20118;-60
2021/07/06 04:03:36;;;;;;;3.65;1.50;;;;;;;;;;5007543;28;20084;-60
2021/07/06 04:06:04;;;;;;;4.65;1.90;;;;;;;;;;5006781;28;20052;-59
2021/07/06 04:08:33;;;;;;;3.40;1.65;;;;;;;;;;5020884;28;20080;-60
2021/07/06 04:11:02;;;;;;;2.78;1.80;;;;;;;;;;5013274;28;20046;-60
2021/07/06 04:13:30;;;;;;;5.00;1.60;;;;;;;;;;5005653;28;20573;-59
2021/07/06 04:16:00;;;;;;;4.97;1.80;;;;;;;;;;5015847;28;20049;-59
2021/07/06 04:18:28;;;;;;;4.82;2.10;;;;;;;;;;5020543;28;20474;-59
2021/07/06 04:21:00;;;;;;;3.13;1.90;;;;;;;;;;5013419;28;20056;-60
2021/07/06 04:23:28;;;;;;;5.32;1.80;;;;;;;;;;5024465;28;20136;-60
2021/07/06 04:25:56;;;;;;;4.28;1.83;;;;;;;;;;5024266;28;20084;-60
2021/07/06 04:28:25;;;;;;;6.00;2.00;;;;;;;;;;5014949;28;20053;-60
2021/07/06 04:30:53;;;;;;;3.78;1.80;;;;;;;;;;5012763;28;20468;-60
2021/07/06 04:33:23;;;;;;;2.47;1.40;;;;;;;;;;5015013;28;20046;-60
2021/07/06 04:35:51;;;;;;;7.07;2.00;;;;;;;;;;5010334;28;20490;-60
2021/07/06 04:38:19;;;;;;;2.47;1.60;;;;;;;;;;5008093;28;20054;-60
2021/07/06 04:40:48;;;;;;;7.40;1.98;;;;;;;;;;5009756;28;20058;-60
2021/07/06 04:43:16;;;;;;;4.38;1.65;;;;;;;;;;5005766;28;20046;-60
2021/07/06 04:45:44;;;;;;;2.90;1.75;;;;;;;;;;4998763;28;20100;-60
2021/07/06 04:48:13;;;;;;;3.25;1.80;;;;;;;;;;4999988;28;20346;-60
2021/07/06 04:50:42;;;;;;;2.67;1.95;;;;;;;;;;5010714;28;20149;-60
2021/07/06 04:53:11;;;;;;;2.72;1.75;;;;;;;;;;5012052;28;20045;-60
2021/07/06 04:55:40;;;;;;;2.00;1.70;;;;;;;;;;5010399;28;20129;-60
2021/07/06 04:58:08;;;;;;;5.20;1.90;;;;;;;;;;5006549;28;20478;-60
2021/07/06 05:00:36;;;;;;;6.43;1.92;;;;;;;;;;5005740;28;20140;-60
2021/07/06 05:03:05;;;;;;;2.58;1.90;;;;;;;;;;5030417;28;20045;-60
2021/07/06 05:05:38;;;;;;;3.03;1.80;;;;;;;;;;5026761;28;20460;-60
2021/07/06 05:08:07;;;;;;;4.70;1.80;;;;;;;;;;5008056;28;20113;-60
2021/07/06 05:10:36;;;;;;;2.30;1.60;;;;;;;;;;5010391;28;20073;-60
2021/07/06 05:13:04;;;;;;;4.63;1.92;;;;;;;;;;4988392;28;20133;-60
2021/07/06 05:15:33;;;;;;;4.60;1.98;;;;;;;;;;5005868;28;20054;-60
2021/07/06 05:18:01;;;;;;;4.15;1.85;;;;;;;;;;5016645;28;21513;-60
2021/07/06 05:20:30;;;;;;;3.55;1.85;;;;;;;;;;5019530;28;20053;-60
2021/07/06 05:22:58;;;;;;;2.30;1.77;;;;;;;;;;5004403;28;20125;-60
2021/07/06 05:25:28;;;;;;;3.83;2.30;;;;;;;;;;5015058;28;20080;-60
2021/07/06 05:27:58;;;;;;;2.80;2.10;;;;;;;;;;5013995;28;20405;-60
2021/07/06 05:30:27;;;;;;;7.43;2.20;;;;;;;;;;5016974;28;20132;-61
2021/07/06 05:32:55;;;;;;;4.35;2.10;;;;;;;;;;5009778;28;20069;-60
2021/07/06 05:35:24;;;;;;;3.25;1.80;;;;;;;;;;5021821;28;20077;-61
2021/07/06 05:37:52;;;;;;;7.47;2.33;;;;;;;;;;5008481;28;20081;-60
2021/07/06 05:40:23;;;;;;;4.35;2.00;;;;;;;;;;5006970;28;20112;-60
2021/07/06 05:42:53;;;;;;;3.10;2.13;;;;;;;;;;5007422;28;20049;-60
2021/07/06 05:45:21;;;;;;;7.50;3.30;;;;;;;;;;5008719;28;20601;-60
2021/07/06 05:47:50;;;;;;;4.13;1.73;;;;;;;;;;5010691;28;20584;-60
2021/07/06 05:50:18;;;;;;;5.28;2.20;;;;;;;;;;5006256;28;20053;-60
2021/07/06 05:52:46;;;;;;;3.25;1.70;;;;;;;;;;5006894;28;20401;-60
2021/07/06 05:55:15;;;;;;;3.72;1.90;;;;;;;;;;5005330;28;20105;-60
2021/07/06 05:57:44;;;;;;;5.18;2.40;;;;;;;;;;5003246;28;20041;-60
2021/07/06 06:00:17;;;;;;;6.50;2.00;;;;;;;;;;5011129;28;20457;-60
2021/07/06 06:02:48;;;;;;;4.65;2.10;;;;;;;;;;5016125;28;20091;-60
2021/07/06 06:05:16;;;;;;;6.57;2.30;;;;;;;;;;5003117;28;20172;-60
2021/07/06 06:07:46;;;;;;;4.53;1.92;;;;;;;;;;5003795;28;20108;-60
2021/07/06 06:10:15;;;;;;;4.43;2.33;;;;;;;;;;5004145;28;20483;-60
2021/07/06 06:12:43;;;;;;;3.45;1.75;;;;;;;;;;4998739;28;20061;-61
2021/07/06 06:15:12;;;;;;;6.30;2.10;;;;;;;;;;5008964;28;20417;-60
2021/07/06 06:17:42;;;;;;;6.85;1.98;;;;;;;;;;5003083;28;20048;-60
2021/07/06 06:20:12;;;;;;;3.97;1.80;;;;;;;;;;5013864;28;20476;-60
2021/07/06 06:22:40;;;;;;;5.18;2.08;;;;;;;;;;5007700;28;20089;-60
2021/07/06 06:25:09;;;;;;;4.22;1.88;;;;;;;;;;5010854;28;20045;-60
2021/07/06 06:27:38;;;;;;;5.90;1.90;;;;;;;;;;5006872;28;20477;-60
2021/07/06 06:30:07;;;;;;;5.85;2.00;;;;;;;;;;5024742;28;20493;-61
2021/07/06 06:32:35;;;;;;;3.60;1.90;;;;;;;;;;4999798;28;20054;-60
2021/07/06 06:35:06;;;;;;;2.92;1.70;;;;;;;;;;5006055;28;20088;-60
2021/07/06 06:37:34;;;;;;;3.95;1.80;;;;;;;;;;5013648;28;20046;-60
2021/07/06 06:40:02;;;;;;;3.30;1.42;;;;;;;;;;5013742;28;20062;-60
2021/07/06 06:42:30;;;;;;;5.75;1.40;;;;;;;;;;5008946;28;20137;-59
2021/07/06 06:44:59;;;;;;;4.68;1.35;;;;;;;;;;5015220;28;20083;-59
2021/07/06 06:47:27;;;;;;;6.20;1.60;;;;;;;;;;5012538;28;20096;-60
2021/07/06 06:49:56;;;;;;;2.45;1.40;;;;;;;;;;5010735;28;20108;-61
2021/07/06 06:52:25;;;;;;;2.42;1.70;;;;;;;;;;5010137;28;20910;-60
2021/07/06 06:54:54;;;;;;;2.90;1.50;;;;;;;;;;5003171;28;20137;-60
2021/07/06 06:57:24;;;;;;;2.75;1.33;;;;;;;;;;5015870;28;20524;-60
2021/07/06 06:59:53;;;;;;;1.23;1.13;;;;;;;;;;5006568;28;20119;-60
2021/07/06 07:02:28;;;;;;;4.13;1.02;;;;;;;;;;5012493;28;20076;-60
2021/07/06 07:04:57;;;;;;;4.45;1.30;;;;;;;;;;5009859;28;20069;-60
2021/07/06 07:07:28;;;;;;;3.42;1.23;;;;;;;;;;5016076;28;20132;-60
2021/07/06 07:09:56;;;;;;;2.20;1.45;;;;;;;;;;5023763;28;20494;-63
2021/07/06 07:12:25;;;;;;;6.60;1.40;;;;;;;;;;5029894;28;20050;-60
2021/07/06 07:14:56;;;;;;;2.70;1.10;;;;;;;;;;4992923;28;20054;-60
2021/07/06 07:17:25;;;;;;;1.98;1.10;;;;;;;;;;5016476;28;20088;-60
2021/07/06 07:19:54;;;;;;;2.78;0.93;;;;;;;;;;5014434;28;20077;-60
2021/07/06 07:22:23;;;;;;;2.47;1.08;;;;;;;;;;5007085;28;20104;-60
2021/07/06 07:24:53;;;;;;;4.07;1.80;;;;;;;;;;5022302;28;20054;-60
2021/07/06 07:27:22;;;;;;;1.88;1.10;;;;;;;;;;5029069;28;20060;-60
2021/07/06 07:29:50;;;;;;;1.10;1.00;;;;;;;;;;5010051;28;20050;-60
2021/07/06 07:32:19;;;;;;;3.58;1.10;;;;;;;;;;5008439;28;20085;-61
2021/07/06 07:34:48;;;;;;;8.73;1.50;;;;;;;;;;5011068;28;20464;-58
2021/07/06 07:37:19;;;;;;;2.30;1.30;;;;;;;;;;5010628;28;20462;-59
2021/07/06 07:39:47;;;;;;;3.90;1.20;;;;;;;;;;5008509;28;20125;-60
2021/07/06 07:42:20;;;;;;;4.07;1.20;;;;;;;;;;5006506;28;20496;-60
2021/07/06 07:44:48;;;;;;;3.42;1.30;;;;;;;;;;4989492;28;20050;-60
2021/07/06 07:47:17;;;;;;;2.45;1.00;;;;;;;;;;5009585;28;20093;-60
2021/07/06 07:49:45;;;;;;;1.35;0.95;;;;;;;;;;5026437;28;20050;-60
2021/07/06 07:52:14;;;;;;;1.25;1.00;;;;;;;;;;5010477;28;20049;-59
2021/07/06 07:54:42;;;;;;;2.88;1.17;;;;;;;;;;5011058;28;20568;-60
2021/07/06 07:57:11;;;;;;;2.97;1.17;;;;;;;;;;5009780;28;20062;-60
2021/07/06 07:59:41;;;;;;;3.30;1.13;;;;;;;;;;4996039;28;20064;-60
2021/07/06 08:02:10;;;;;;;3.35;1.58;;;;;;;;;;5000356;28;20066;-60
2021/07/06 08:04:38;;;;;;;1.80;1.15;;;;;;;;;;5007157;28;20449;-60
2021/07/06 08:07:07;;;;;;;1.08;0.90;;;;;;;;;;5011197;28;20073;-60
2021/07/06 08:09:35;;;;;;;2.33;1.10;;;;;;;;;;5010805;28;20088;-60
2021/07/06 08:12:04;;;;;;;2.03;1.10;;;;;;;;;;5010350;28;20042;-60
2021/07/06 08:14:33;;;;;;;3.67;1.17;;;;;;;;;;4996159;28;20505;-60
2021/07/06 08:17:02;;;;;;;1.00;0.88;;;;;;;;;;5011589;28;20081;-60
2021/07/06 08:19:31;;;;;;;3.35;1.23;;;;;;;;;;5010277;28;20081;-60
2021/07/06 08:22:00;;;;;;;2.28;1.23;;;;;;;;;;5009145;28;20053;-60
2021/07/06 08:24:29;;;;;;;3.08;1.33;;;;;;;;;;5009992;28;20064;-60
2021/07/06 08:26:57;;;;;;;4.18;1.20;;;;;;;;;;5014939;28;20042;-60
2021/07/06 08:29:27;;;;;;;3.38;1.33;;;;;;;;;;5012745;28;20510;-60
2021/07/06 08:31:55;;;;;;;1.77;0.90;;;;;;;;;;5010084;28;20092;-60
2021/07/06 08:34:26;;;;;;;3.33;1.15;;;;;;;;;;5007268;28;20045;-60
2021/07/06 08:36:54;;;;;;;1.45;0.90;;;;;;;;;;5015942;28;20054;-60
2021/07/06 08:39:23;;;;;;;2.20;0.88;;;;;;;;;;5011717;28;20348;-60
2021/07/06 08:41:51;;;;;;;1.30;0.90;;;;;;;;;;5005382;28;20050;-60
2021/07/06 08:44:21;;;;;;;1.35;0.90;;;;;;;;;;5015251;28;20042;-60
2021/07/06 08:46:51;;;;;;;1.35;0.88;;;;;;;;;;5011151;28;20339;-60
2021/07/06 08:49:20;;;;;;;0.70;0.70;;;;;;;;;;4996650;28;20462;-60
2021/07/06 08:51:51;;;;;;;1.95;0.90;;;;;;;;;;5010554;28;20453;-61
2021/07/06 08:54:20;;;;;;;1.10;0.77;;;;;;;;;;5007238;28;20386;-60
2021/07/06 08:56:50;;;;;;;2.35;0.70;;;;;;;;;;4999264;28;20049;-60
2021/07/06 08:59:31;;;;;;;3.92;1.48;;;;;;;;;;4998922;28;20042;-60
2021/07/06 09:01:59;;;;;;;1.98;0.82;;;;;;;;;;5004887;28;20127;-60
2021/07/06 09:04:42;;;;;;;1.30;0.90;;;;;;;;;;5001996;28;20046;-60
2021/07/06 09:07:13;;;;;;;1.33;0.85;;;;;;;;;;5006976;28;20526;-60
2021/07/06 09:09:42;;;;;;;1.92;0.73;;;;;;;;;;5002742;28;20313;-61
2021/07/06 09:12:12;;;;;;;3.58;0.98;;;;;;;;;;5001200;28;20045;-60
2021/07/06 09:14:44;;;;;;;2.17;0.80;;;;;;;;;;4998895;28;20410;-61
2021/07/06 09:17:14;;;;;;;3.15;0.57;;;;;;;;;;4997806;28;20274;-61
2021/07/06 09:19:44;;;;;;;3.85;0.95;;;;;;;;;;5001107;28;20057;-61
2021/07/06 09:22:15;;;;;;;1.20;0.90;;;;;;;;;;4999600;28;20357;-61
2021/07/06 09:24:45;;;;;;;4.32;0.93;;;;;;;;;;5007233;28;20060;-61
2021/07/06 09:27:20;;;;;;;2.17;0.70;;;;;;;;;;5001749;28;20410;-61
2021/07/06 09:30:05;;;;;;;1.85;0.88;;;;;;;;;;5002449;28;20054;-61
2021/07/06 09:32:45;;;;;;;2.40;0.90;;;;;;;;;;5005350;28;20560;-61
2021/07/06 09:35:15;;;;;;;0.98;0.85;;;;;;;;;;5008331;28;20055;-61
2021/07/06 09:37:46;;;;;;;3.58;0.80;;;;;;;;;;5010093;28;20465;-61
2021/07/06 09:40:22;;;;;;;1.27;0.70;;;;;;;;;;5005097;28;20062;-61
2021/07/06 09:43:07;;;;;;;1.58;0.80;;;;;;;;;;5001538;28;20049;-61
2021/07/06 09:45:36;;;;;;;3.30;1.15;;;;;;;;;;5007117;28;20712;-61
2021/07/06 09:48:05;;;;;;;1.15;0.80;;;;;;;;;;5006106;28;20520;-61
2021/07/06 09:50:34;;;;;;;1.35;0.80;;;;;;;;;;5008147;28;20061;-61
2021/07/06 09:53:05;;;;;;;2.15;0.80;;;;;;;;;;5003253;28;20410;-61
2021/07/06 09:55:34;;;;;;;0.70;0.70;;;;;;;;;;5007533;28;20054;-61
2021/07/06 09:58:05;;;;;;;3.58;1.00;;;;;;;;;;5001425;28;20050;-61
2021/07/06 10:00:34;;;;;;;2.50;0.75;;;;;;;;;;5007900;28;20109;-61
2021/07/06 10:03:03;;;;;;;1.52;1.27;;;;;;;;;;5003325;28;20050;-61
2021/07/06 10:05:33;;;;;;;0.82;0.77;;;;;;;;;;5000079;28;20045;-61
2021/07/06 10:08:03;;;;;;;2.53;0.90;;;;;;;;;;5005003;28;20172;-61
2021/07/06 10:10:33;;;;;;;1.55;0.90;;;;;;;;;;5003080;28;20452;-61
2021/07/06 10:13:02;;;;;;;3.33;0.90;;;;;;;;;;4999972;28;20125;-61
2021/07/06 10:15:31;;;;;;;2.20;0.73;;;;;;;;;;5007784;28;20137;-61
2021/07/06 10:18:00;;;;;;;6.72;1.05;;;;;;;;;;5007165;28;20042;-61
2021/07/06 10:20:32;;;;;;;2.63;0.88;;;;;;;;;;5006221;28;20046;-61
2021/07/06 10:23:02;;;;;;;1.10;0.75;;;;;;;;;;5001302;28;20412;-61
2021/07/06 10:25:31;;;;;;;2.90;0.82;;;;;;;;;;4993660;28;20192;-61
2021/07/06 10:28:02;;;;;;;2.08;0.80;;;;;;;;;;4992781;28;20049;-61
2021/07/06 10:30:41;;;;;;;1.40;0.73;;;;;;;;;;4999143;28;20045;-61
2021/07/06 10:33:10;;;;;;;;;;;;;;;;;;4996574;28;20061;-61
2021/07/06 10:35:50;;;;;;;1.02;0.80;;;;;;;;;;4999365;28;20024;-61
2021/07/06 10:38:41;;;;;;;1.85;0.90;;;;;;;;;;4998577;28;20059;-61
2021/07/06 10:41:12;;;;;;;2.28;0.88;;;;;;;;;;4999398;28;20062;-61
2021/07/06 10:43:58;;;;;;;1.88;0.70;;;;;;;;;;5000838;28;20883;-61
2021/07/06 10:46:30;;;;;;;2.28;0.60;;;;;;;;;;4999893;28;20064;-61
2021/07/06 10:49:00;;;;;;;3.97;0.95;;;;;;;;;;5006133;28;21255;-61
2021/07/06 10:51:45;;;;;;;1.48;0.70;;;;;;;;;;5006193;28;20041;-61
2021/07/06 10:54:14;;;;;;;;;;;;;;;;;;5005885;28;20053;-62
2021/07/06 10:56:44;;;;;;;1.45;0.90;;;;;;;;;;5008381;28;20373;-61
2021/07/06 10:59:20;;;;;;;0.80;0.60;;;;;;;;;;5010005;28;20049;-61
2021/07/06 11:01:58;;;;;;;2.35;0.98;;;;;;;;;;5004315;28;20398;-61
2021/07/06 11:05:02;;;;;;;6.50;0.70;;;;;;;;;;5012190;28;20096;-61
2021/07/06 11:07:58;;;;;;;2.38;0.73;;;;;;;;;;5010551;28;20037;-62
2021/07/06 11:10:38;;;;;;;1.67;0.70;;;;;;;;;;5010233;28;20068;-61
2021/07/06 11:13:37;;;;;;;2.92;0.70;;;;;;;;;;4996377;28;20060;-62
2021/07/06 11:16:27;;;;;;;1.65;0.60;;;;;;;;;;4954355;28;20079;-61
2021/07/06 11:18:56;;;;;;;0.82;0.73;;;;;;;;;;5005653;28;20050;-61
2021/07/06 11:21:36;;;;;;;1.13;0.60;;;;;;;;;;5006008;28;20134;-62
2021/07/06 11:24:15;;;;;;;7.78;0.90;;;;;;;;;;5010202;28;21003;-61
2021/07/06 11:26:45;;;;;;;0.57;0.50;;;;;;;;;;5005923;28;20077;-62
2021/07/06 11:29:25;;;;;;;3.13;0.90;;;;;;;;;;5005510;28;20054;-62
2021/07/06 11:32:09;;;;;;;1.77;0.63;;;;;;;;;;4998863;28;20053;-61
2021/07/06 11:34:38;;;;;;;3.00;0.70;;;;;;;;;;5001581;28;20409;-61
2021/07/06 11:37:08;;;;;;;1.02;0.60;;;;;;;;;;5005351;28;20073;-61
2021/07/06 11:39:36;;;;;;;2.78;0.90;;;;;;;;;;5008646;28;20053;-61
2021/07/06 11:42:05;;;;;;;1.00;0.82;;;;;;;;;;5010301;28;20438;-61
2021/07/06 11:44:34;;;;;;;1.15;0.65;;;;;;;;;;5002906;28;20054;-61
2021/07/06 11:47:11;;;;;;;0.63;0.63;;;;;;;;;;5000999;28;20077;-61
2021/07/06 11:49:44;;;;;;;1.17;0.65;;;;;;;;;;5002520;28;20124;-61
2021/07/06 11:52:13;;;;;;;1.80;0.60;;;;;;;;;;5001302;28;20719;-61
2021/07/06 11:54:44;;;;;;;1.85;0.82;;;;;;;;;;5000014;28;20117;-61
2021/07/06 11:57:12;;;;;;;0.75;0.60;;;;;;;;;;5006675;28;20383;-61
2021/07/06 11:59:41;;;;;;;2.10;0.60;;;;;;;;;;5005901;28;20050;-60
2021/07/06 12:02:14;;;;;;;1.27;0.60;;;;;;;;;;5007388;28;20386;-61
2021/07/06 12:04:43;;;;;;;1.30;0.60;;;;;;;;;;5009146;28;20080;-61
2021/07/06 12:07:13;;;;;;;1.85;0.47;;;;;;;;;;5002641;28;20461;-60
2021/07/06 12:09:41;;;;;;;2.47;0.85;;;;;;;;;;4999877;28;20046;-60
2021/07/06 12:12:12;;;;;;;2.45;0.60;;;;;;;;;;5001131;28;20100;-61
2021/07/06 12:14:45;;;;;;;1.50;0.80;;;;;;;;;;5000839;28;20053;-60
2021/07/06 12:17:25;;;;;;;2.90;0.80;;;;;;;;;;5008438;28;20050;-61
2021/07/06 12:19:53;;;;;;;2.28;0.60;;;;;;;;;;5003873;28;20054;-60
2021/07/06 12:22:22;;;;;;;1.30;0.70;;;;;;;;;;5004751;28;20482;-61
2021/07/06 12:24:51;;;;;;;1.70;0.88;;;;;;;;;;4998169;28;20525;-61
2021/07/06 12:27:20;;;;;;;2.75;0.65;;;;;;;;;;5000241;28;20042;-61
2021/07/06 12:29:56;;;;;;;1.08;0.60;;;;;;;;;;4991530;28;20050;-61
2021/07/06 12:32:26;;;;;;;4.78;0.60;;;;;;;;;;4997304;28;20042;-61
2021/07/06 12:34:57;;;;;;;3.22;0.90;;;;;;;;;;5009553;28;20116;-61
2021/07/06 12:37:26;;;;;;;1.70;0.70;;;;;;;;;;5009900;28;20057;-61
2021/07/06 12:40:02;;;;;;;1.75;0.80;;;;;;;;;;5004226;28;20418;-61
2021/07/06 12:42:42;;;;;;;0.52;0.52;;;;;;;;;;1643386;28;10023359;-62
2021/07/06 12:45:11;;;;;;;0.80;0.70;;;;;;;;;;3962782;28;10001233;-61
2021/07/06 12:47:42;;;;;;;4.88;0.70;;;;;;;;;;5008077;28;20046;-61
2021/07/06 12:50:15;;;;;;;1.63;0.70;;;;;;;;;;5009453;28;20045;-61
2021/07/06 12:52:44;;;;;;;3.15;0.80;;;;;;;;;;4998648;28;20050;-61
2021/07/06 12:55:14;;;;;;;1.10;0.65;;;;;;;;;;5000317;28;20388;-61
2021/07/06 12:57:43;;;;;;;0.95;0.90;;;;;;;;;;4997995;28;20069;-61
2021/07/06 13:00:17;;;;;;;7.60;0.98;;;;;;;;;;4991484;28;20316;-61
2021/07/06 13:02:47;;;;;;;;;;;;;;;;;;5003909;28;20073;-61
2021/07/06 13:05:22;;;;;;;1.88;0.80;;;;;;;;;;5006434;28;20019;-61
2021/07/06 13:07:51;;;;;;;0.57;0.50;;;;;;;;;;5011110;28;20045;-61
2021/07/06 13:10:21;;;;;;;1.58;0.80;;;;;;;;;;5010367;28;20468;-61
2021/07/06 13:12:58;;;;;;;1.58;0.73;;;;;;;;;;5002274;28;20141;-61
2021/07/06 13:15:30;;;;;;;2.28;0.80;;;;;;;;;;5000276;28;20599;-61
2021/07/06 13:17:59;;;;;;;2.78;1.05;;;;;;;;;;5004530;28;20410;-61
2021/07/06 13:20:29;;;;;;;2.55;0.65;;;;;;;;;;4999668;28;20050;-61
2021/07/06 13:22:58;;;;;;;2.30;0.90;;;;;;;;;;4998589;28;20406;-61
2021/07/06 13:25:27;;;;;;;1.73;0.80;;;;;;;;;;5016038;28;20045;-61
2021/07/06 13:28:00;;;;;;;2.83;0.88;;;;;;;;;;5010243;28;20104;-61
2021/07/06 13:30:29;;;;;;;2.33;0.60;;;;;;;;;;5008811;28;20049;-62
2021/07/06 13:33:01;;;;;;;2.25;0.77;;;;;;;;;;5000622;28;20103;-62
2021/07/06 13:35:31;;;;;;;0.60;0.60;;;;;;;;;;5002072;28;20054;-62
2021/07/06 13:38:00;;;;;;;0.73;0.57;;;;;;;;;;4995037;28;20085;-62
2021/07/06 13:40:28;;;;;;;7.10;1.08;;;;;;;;;;5009150;28;20067;-62
2021/07/06 13:43:00;;;;;;;1.52;0.73;;;;;;;;;;4998701;28;20062;-62
2021/07/06 13:45:29;;;;;;;4.80;0.90;;;;;;;;;;5001783;28;20053;-62
2021/07/06 13:47:57;;;;;;;4.18;1.42;;;;;;;;;;4998029;28;20046;-62
2021/07/06 13:50:26;;;;;;;0.70;0.65;;;;;;;;;;5007040;28;20049;-60
2021/07/06 13:52:56;;;;;;;2.00;0.60;;;;;;;;;;5002190;28;20625;-60
2021/07/06 13:55:26;;;;;;;2.80;0.60;;;;;;;;;;4996533;28;20050;-61
2021/07/06 13:57:55;;;;;;;1.08;0.50;;;;;;;;;;5003317;28;20514;-61
2021/07/06 14:00:24;;;;;;;2.20;0.70;;;;;;;;;;5002369;28;20049;-61
2021/07/06 14:02:52;;;;;;;2.67;0.73;;;;;;;;;;5000974;28;20045;-61
2021/07/06 14:05:21;;;;;;;1.92;0.80;;;;;;;;;;5003733;28;20041;-61
2021/07/06 14:07:49;;;;;;;2.17;0.77;;;;;;;;;;4999820;28;20054;-61
2021/07/06 14:10:19;;;;;;;1.92;0.70;;;;;;;;;;4998537;28;20061;-61
2021/07/06 14:12:48;;;;;;;2.30;0.80;;;;;;;;;;5009175;28;20124;-61
2021/07/06 14:15:18;;;;;;;1.00;0.50;;;;;;;;;;5004574;28;20117;-61
2021/07/06 14:17:46;;;;;;;5.78;0.70;;;;;;;;;;5005697;28;20049;-61
2021/07/06 14:20:15;;;;;;;0.55;0.52;;;;;;;;;;5011307;28;20041;-61
2021/07/06 14:22:45;;;;;;;3.05;0.93;;;;;;;;;;5007300;28;20085;-61
2021/07/06 14:25:15;;;;;;;1.00;0.70;;;;;;;;;;5012072;28;20046;-61
2021/07/06 14:27:45;;;;;;;1.85;0.90;;;;;;;;;;5012249;28;20245;-61
2021/07/06 14:30:29;;;;;;;1.02;0.80;;;;;;;;;;5013308;28;20095;-61
2021/07/06 14:32:59;;;;;;;1.35;0.73;;;;;;;;;;5005428;28;20499;-61
2021/07/06 14:35:33;;;;;;;2.35;0.73;;;;;;;;;;4999282;28;20144;-61
2021/07/06 14:38:01;;;;;;;3.72;0.70;;;;;;;;;;4998151;28;20042;-61
2021/07/06 14:40:30;;;;;;;2.85;0.60;;;;;;;;;;5012263;28;20061;-61
2021/07/06 14:43:00;;;;;;;3.17;1.17;;;;;;;;;;5006583;28;20399;-61
2021/07/06 14:45:29;;;;;;;2.50;0.90;;;;;;;;;;5005992;28;20053;-61
2021/07/06 14:47:59;;;;;;;1.10;0.70;;;;;;;;;;5009567;28;20038;-61
2021/07/06 14:50:28;;;;;;;3.97;1.00;;;;;;;;;;5004207;28;20084;-61
2021/07/06 14:52:57;;;;;;;4.43;1.02;;;;;;;;;;5005904;28;20125;-61
2021/07/06 14:55:26;;;;;;;1.88;1.30;;;;;;;;;;5003237;28;20061;-61
2021/07/06 14:57:55;;;;;;;6.18;1.60;;;;;;;;;;5010966;28;20068;-61
2021/07/06 15:00:30;;;;;;;4.18;1.08;;;;;;;;;;5010899;28;20123;-61